Weldona, Colorado
Current Conditions -  °F | °C
As of 2:15 AM on Monday 20 Oct 2014 (Local Time) from KFMM Reporting Station
Clear Clear  
Wind Chill: 39°   Ceiling: Unl
Heat Index: 44°   Visibility: 10mi
Dew Point: 36°   Wind: 8mph
Humidity: 73%   Direction: 270°W
Pressure: 30.16"   Gusts: NA
Location:  40.35°N, 103.97°W
Report Text: KFMM 200815Z AUTO 27007KT 10SM CLR 07/02 A3016 RMK AO2 T00660020
Loading
Personal Weather Stations






























Interactive Weather Map
Tropical Storm Tracking
New forecast layout! Learn more

10-Day Weather Forecast

Advertisements
Track Severe Weather on mobile